sensor_id;sensor_type;location;lat;lon;timestamp;temperature;humidity
15676;DHT22;7938;47.666;9.434;2023-09-19T04:01:40;17.30;99.90
15676;DHT22;7938;47.666;9.434;2023-09-19T04:04:07;17.20;99.90
15676;DHT22;7938;47.666;9.434;2023-09-19T04:06:34;17.20;99.90
15676;DHT22;7938;47.666;9.434;2023-09-19T04:09:01;17.20;99.90
15676;DHT22;7938;47.666;9.434;2023-09-19T04:11:29;17.10;99.90
15676;DHT22;7938;47.666;9.434;2023-09-19T04:13:56;17.10;99.90
15676;DHT22;7938;47.666;9.434;2023-09-19T04:18:52;17.10;99.90
15676;DHT22;7938;47.666;9.434;2023-09-19T04:21:18;17.00;99.90
15676;DHT22;7938;47.666;9.434;2023-09-19T04:23:45;17.00;99.90
15676;DHT22;7938;47.666;9.434;2023-09-19T04:26:12;16.90;99.90
15676;DHT22;7938;47.666;9.434;2023-09-19T04:28:42;17.00;99.90
15676;DHT22;7938;47.666;9.434;2023-09-19T04:31:09;17.00;99.90
15676;DHT22;7938;47.666;9.434;2023-09-19T04:33:37;16.90;99.90
15676;DHT22;7938;47.666;9.434;2023-09-19T04:36:05;17.00;99.90
15676;DHT22;7938;47.666;9.434;2023-09-19T04:38:33;16.90;99.90
15676;DHT22;7938;47.666;9.434;2023-09-19T04:41:00;16.90;99.90
15676;DHT22;7938;47.666;9.434;2023-09-19T04:43:27;16.80;99.90
15676;DHT22;7938;47.666;9.434;2023-09-19T04:45:54;16.80;99.90
15676;DHT22;7938;47.666;9.434;2023-09-19T04:48:21;16.80;99.90
15676;DHT22;7938;47.666;9.434;2023-09-19T04:50:50;16.90;99.90
15676;DHT22;7938;47.666;9.434;2023-09-19T04:53:18;16.90;99.90
15676;DHT22;7938;47.666;9.434;2023-09-19T04:55:50;16.90;99.90
15676;DHT22;7938;47.666;9.434;2023-09-19T04:58:18;17.00;99.90
15676;DHT22;7938;47.666;9.434;2023-09-19T05:00:45;17.00;99.90
15676;DHT22;7938;47.666;9.434;2023-09-19T05:03:11;17.00;99.90
15676;DHT22;7938;47.666;9.434;2023-09-19T05:05:38;17.10;99.90
15676;DHT22;7938;47.666;9.434;2023-09-19T05:08:06;17.20;99.90
15676;DHT22;7938;47.666;9.434;2023-09-19T05:10:36;17.10;99.90
15676;DHT22;7938;47.666;9.434;2023-09-19T05:13:03;17.20;99.90
15676;DHT22;7938;47.666;9.434;2023-09-19T05:15:30;17.20;99.90
15676;DHT22;7938;47.666;9.434;2023-09-19T05:17:57;17.20;99.90
15676;DHT22;7938;47.666;9.434;2023-09-19T05:20:24;17.20;99.90
15676;DHT22;7938;47.666;9.434;2023-09-19T05:22:58;17.20;99.90
15676;DHT22;7938;47.666;9.434;2023-09-19T05:25:26;17.30;99.90
15676;DHT22;7938;47.666;9.434;2023-09-19T05:27:56;17.20;99.90
15676;DHT22;7938;47.666;9.434;2023-09-19T05:30:25;17.30;99.90
15676;DHT22;7938;47.666;9.434;2023-09-19T05:32:53;17.30;99.90
15676;DHT22;7938;47.666;9.434;2023-09-19T05:35:20;17.30;99.90
15676;DHT22;7938;47.666;9.434;2023-09-19T05:37:48;17.30;99.90
15676;DHT22;7938;47.666;9.434;2023-09-19T05:40:16;17.30;99.90
15676;DHT22;7938;47.666;9.434;2023-09-19T05:42:43;17.30;99.90
15676;DHT22;7938;47.666;9.434;2023-09-19T05:45:12;17.30;99.90
15676;DHT22;7938;47.666;9.434;2023-09-19T05:47:39;17.40;99.90
15676;DHT22;7938;47.666;9.434;2023-09-19T05:50:10;17.40;99.90
15676;DHT22;7938;47.666;9.434;2023-09-19T05:52:37;17.40;99.90
15676;DHT22;7938;47.666;9.434;2023-09-19T05:55:04;17.40;99.90
15676;DHT22;7938;47.666;9.434;2023-09-19T05:57:32;17.40;99.90
15676;DHT22;7938;47.666;9.434;2023-09-19T05:59:59;17.40;99.90
15676;DHT22;7938;47.666;9.434;2023-09-19T06:02:27;17.40;99.90
15676;DHT22;7938;47.666;9.434;2023-09-19T06:04:55;17.50;99.90
15676;DHT22;7938;47.666;9.434;2023-09-19T06:07:22;17.50;99.90
15676;DHT22;7938;47.666;9.434;2023-09-19T06:09:51;17.50;99.90
15676;DHT22;7938;47.666;9.434;2023-09-19T06:12:19;17.60;99.90
15676;DHT22;7938;47.666;9.434;2023-09-19T06:14:45;17.60;99.90
15676;DHT22;7938;47.666;9.434;2023-09-19T06:17:13;17.60;99.90
15676;DHT22;7938;47.666;9.434;2023-09-19T06:19:42;17.60;99.90
15676;DHT22;7938;47.666;9.434;2023-09-19T06:22:15;17.70;99.90
15676;DHT22;7938;47.666;9.434;2023-09-19T06:24:43;17.80;99.90
15676;DHT22;7938;47.666;9.434;2023-09-19T06:27:10;17.80;99.90
15676;DHT22;7938;47.666;9.434;2023-09-19T06:29:37;17.80;99.90
15676;DHT22;7938;47.666;9.434;2023-09-19T06:32:07;17.80;99.90
15676;DHT22;7938;47.666;9.434;2023-09-19T06:34:34;17.80;99.90
15676;DHT22;7938;47.666;9.434;2023-09-19T06:37:02;17.90;99.90
15676;DHT22;7938;47.666;9.434;2023-09-19T06:39:29;18.00;99.90
15676;DHT22;7938;47.666;9.434;2023-09-19T06:41:56;18.10;99.90
15676;DHT22;7938;47.666;9.434;2023-09-19T06:44:23;18.10;99.90
15676;DHT22;7938;47.666;9.434;2023-09-19T06:46:51;18.10;99.90
15676;DHT22;7938;47.666;9.434;2023-09-19T06:49:18;18.00;99.90
15676;DHT22;7938;47.666;9.434;2023-09-19T06:51:45;17.90;99.90
15676;DHT22;7938;47.666;9.434;2023-09-19T06:54:13;17.80;99.90
15676;DHT22;7938;47.666;9.434;2023-09-19T06:56:39;17.80;99.90
15676;DHT22;7938;47.666;9.434;2023-09-19T06:59:07;17.80;99.90
15676;DHT22;7938;47.666;9.434;2023-09-19T07:01:34;18.00;99.90
15676;DHT22;7938;47.666;9.434;2023-09-19T07:04:02;18.10;99.90
15676;DHT22;7938;47.666;9.434;2023-09-19T07:06:28;18.10;99.90
15676;DHT22;7938;47.666;9.434;2023-09-19T07:08:55;17.80;99.90
15676;DHT22;7938;47.666;9.434;2023-09-19T07:11:24;17.50;99.90
15676;DHT22;7938;47.666;9.434;2023-09-19T07:13:50;17.50;99.90
15676;DHT22;7938;47.666;9.434;2023-09-19T07:16:17;17.40;99.90
15676;DHT22;7938;47.666;9.434;2023-09-19T07:18:53;17.40;99.90
15676;DHT22;7938;47.666;9.434;2023-09-19T07:21:20;17.20;99.90
15676;DHT22;7938;47.666;9.434;2023-09-19T07:23:47;17.20;99.90
15676;DHT22;7938;47.666;9.434;2023-09-19T07:26:15;17.10;99.90
15676;DHT22;7938;47.666;9.434;2023-09-19T07:28:43;17.00;99.90
15676;DHT22;7938;47.666;9.434;2023-09-19T07:31:10;17.00;99.90
15676;DHT22;7938;47.666;9.434;2023-09-19T07:33:38;17.10;99.90
15676;DHT22;7938;47.666;9.434;2023-09-19T07:36:06;17.30;99.90
15676;DHT22;7938;47.666;9.434;2023-09-19T07:38:36;17.50;99.90
15676;DHT22;7938;47.666;9.434;2023-09-19T07:41:03;17.70;99.90
15676;DHT22;7938;47.666;9.434;2023-09-19T07:43:30;17.70;99.90
15676;DHT22;7938;47.666;9.434;2023-09-19T07:46:04;17.80;99.90
15676;DHT22;7938;47.666;9.434;2023-09-19T07:48:32;17.80;99.90
15676;DHT22;7938;47.666;9.434;2023-09-19T07:51:02;17.90;99.90
15676;DHT22;7938;47.666;9.434;2023-09-19T07:53:29;17.90;99.90
15676;DHT22;7938;47.666;9.434;2023-09-19T07:56:02;18.00;99.90
15676;DHT22;7938;47.666;9.434;2023-09-19T08:00:56;17.90;99.90
15676;DHT22;7938;47.666;9.434;2023-09-19T08:03:29;17.80;99.90
15676;DHT22;7938;47.666;9.434;2023-09-19T08:05:56;17.90;99.90
15676;DHT22;7938;47.666;9.434;2023-09-19T08:08:25;18.00;99.90
15676;DHT22;7938;47.666;9.434;2023-09-19T08:10:53;18.30;99.90
15676;DHT22;7938;47.666;9.434;2023-09-19T08:13:22;18.30;99.90
15676;DHT22;7938;47.666;9.434;2023-09-19T08:15:49;18.40;99.90
15676;DHT22;7938;47.666;9.434;2023-09-19T08:18:16;18.60;99.90
15676;DHT22;7938;47.666;9.434;2023-09-19T08:20:49;18.90;99.90
15676;DHT22;7938;47.666;9.434;2023-09-19T08:23:16;18.90;99.90
15676;DHT22;7938;47.666;9.434;2023-09-19T08:25:45;19.00;99.90
15676;DHT22;7938;47.666;9.434;2023-09-19T08:28:12;19.10;99.90
15676;DHT22;7938;47.666;9.434;2023-09-19T08:30:43;19.30;99.90
15676;DHT22;7938;47.666;9.434;2023-09-19T08:33:10;19.30;99.90
15676;DHT22;7938;47.666;9.434;2023-09-19T08:35:38;19.40;99.90
15676;DHT22;7938;47.666;9.434;2023-09-19T08:38:08;19.50;99.90
15676;DHT22;7938;47.666;9.434;2023-09-19T08:40:37;19.50;99.90
15676;DHT22;7938;47.666;9.434;2023-09-19T08:43:06;19.50;99.90
15676;DHT22;7938;47.666;9.434;2023-09-19T08:45:33;19.60;99.90
15676;DHT22;7938;47.666;9.434;2023-09-19T08:48:12;19.50;99.90
15676;DHT22;7938;47.666;9.434;2023-09-19T08:50:47;19.40;99.90
15676;DHT22;7938;47.666;9.434;2023-09-19T08:53:31;19.50;99.90
15676;DHT22;7938;47.666;9.434;2023-09-19T08:55:59;19.50;99.90
15676;DHT22;7938;47.666;9.434;2023-09-19T08:58:31;19.40;99.90
15676;DHT22;7938;47.666;9.434;2023-09-19T09:01:00;19.20;99.90
15676;DHT22;7938;47.666;9.434;2023-09-19T09:03:31;19.10;99.90
15676;DHT22;7938;47.666;9.434;2023-09-19T09:05:59;19.20;99.90
15676;DHT22;7938;47.666;9.434;2023-09-19T09:08:30;19.40;99.90
15676;DHT22;7938;47.666;9.434;2023-09-19T09:10:58;19.40;99.90
15676;DHT22;7938;47.666;9.434;2023-09-19T09:13:25;19.50;99.90
15676;DHT22;7938;47.666;9.434;2023-09-19T09:15:53;19.60;99.90
15676;DHT22;7938;47.666;9.434;2023-09-19T09:18:20;19.50;99.90
15676;DHT22;7938;47.666;9.434;2023-09-19T09:20:48;19.50;99.90
15676;DHT22;7938;47.666;9.434;2023-09-19T09:23:14;19.50;99.90
15676;DHT22;7938;47.666;9.434;2023-09-19T09:25:50;19.70;99.90
15676;DHT22;7938;47.666;9.434;2023-09-19T09:28:21;19.80;99.90
15676;DHT22;7938;47.666;9.434;2023-09-19T09:30:48;19.80;99.90
15676;DHT22;7938;47.666;9.434;2023-09-19T09:33:16;19.80;99.90
15676;DHT22;7938;47.666;9.434;2023-09-19T09:35:50;20.10;99.90
15676;DHT22;7938;47.666;9.434;2023-09-19T09:38:19;19.90;99.90
15676;DHT22;7938;47.666;9.434;2023-09-19T09:40:48;20.10;99.90
15676;DHT22;7938;47.666;9.434;2023-09-19T09:43:27;20.30;99.90
15676;DHT22;7938;47.666;9.434;2023-09-19T09:46:11;20.70;99.90
15676;DHT22;7938;47.666;9.434;2023-09-19T09:48:57;20.60;99.90
15676;DHT22;7938;47.666;9.434;2023-09-19T09:51:48;20.70;99.90
15676;DHT22;7938;47.666;9.434;2023-09-19T09:54:23;20.80;99.90
15676;DHT22;7938;47.666;9.434;2023-09-19T09:56:58;20.70;99.90
15676;DHT22;7938;47.666;9.434;2023-09-19T09:59:44;20.80;99.90
15676;DHT22;7938;47.666;9.434;2023-09-19T10:02:13;21.10;99.90
15676;DHT22;7938;47.666;9.434;2023-09-19T10:04:46;21.00;99.90
15676;DHT22;7938;47.666;9.434;2023-09-19T10:07:25;21.30;99.90
15676;DHT22;7938;47.666;9.434;2023-09-19T10:09:55;21.40;99.90
15676;DHT22;7938;47.666;9.434;2023-09-19T10:12:31;21.60;99.90
15676;DHT22;7938;47.666;9.434;2023-09-19T10:15:00;21.10;99.90
15676;DHT22;7938;47.666;9.434;2023-09-19T10:17:29;20.40;99.90
15676;DHT22;7938;47.666;9.434;2023-09-19T10:19:58;20.40;99.90
15676;DHT22;7938;47.666;9.434;2023-09-19T10:22:31;20.20;99.90
15676;DHT22;7938;47.666;9.434;2023-09-19T10:24:59;20.40;99.90
15676;DHT22;7938;47.666;9.434;2023-09-19T10:27:30;20.50;99.90
15676;DHT22;7938;47.666;9.434;2023-09-19T10:30:05;21.00;99.90
15676;DHT22;7938;47.666;9.434;2023-09-19T10:32:35;21.30;99.90
15676;DHT22;7938;47.666;9.434;2023-09-19T10:35:02;21.30;99.90
15676;DHT22;7938;47.666;9.434;2023-09-19T10:37:34;21.00;99.90
15676;DHT22;7938;47.666;9.434;2023-09-19T10:40:04;20.60;99.90
15676;DHT22;7938;47.666;9.434;2023-09-19T10:42:38;21.20;99.90
15676;DHT22;7938;47.666;9.434;2023-09-19T10:45:08;20.50;99.90
15676;DHT22;7938;47.666;9.434;2023-09-19T10:47:39;20.40;99.90
15676;DHT22;7938;47.666;9.434;2023-09-19T10:50:06;20.50;99.90
15676;DHT22;7938;47.666;9.434;2023-09-19T10:52:40;20.60;99.90
15676;DHT22;7938;47.666;9.434;2023-09-19T10:55:08;20.50;99.90
15676;DHT22;7938;47.666;9.434;2023-09-19T10:57:46;20.70;99.90
15676;DHT22;7938;47.666;9.434;2023-09-19T11:00:14;20.50;99.90
15676;DHT22;7938;47.666;9.434;2023-09-19T11:03:18;20.70;99.90
15676;DHT22;7938;47.666;9.434;2023-09-19T11:06:10;21.10;99.90
15676;DHT22;7938;47.666;9.434;2023-09-19T11:08:55;20.90;99.90
15676;DHT22;7938;47.666;9.434;2023-09-19T11:11:48;21.30;99.90
15676;DHT22;7938;47.666;9.434;2023-09-19T11:14:39;21.70;99.90
15676;DHT22;7938;47.666;9.434;2023-09-19T11:17:43;21.90;99.90
15676;DHT22;7938;47.666;9.434;2023-09-19T11:20:22;22.10;99.90
15676;DHT22;7938;47.666;9.434;2023-09-19T11:23:23;22.30;99.90
15676;DHT22;7938;47.666;9.434;2023-09-19T11:25:50;22.40;99.90
15676;DHT22;7938;47.666;9.434;2023-09-19T11:28:33;22.10;99.90
15676;DHT22;7938;47.666;9.434;2023-09-19T11:36:59;22.60;99.90
15676;DHT22;7938;47.666;9.434;2023-09-19T11:39:27;22.40;99.90
15676;DHT22;7938;47.666;9.434;2023-09-19T11:41:54;21.90;99.90
15676;DHT22;7938;47.666;9.434;2023-09-19T11:44:34;21.70;99.90
15676;DHT22;7938;47.666;9.434;2023-09-19T11:47:04;21.40;99.90
15676;DHT22;7938;47.666;9.434;2023-09-19T11:49:32;21.30;99.90
15676;DHT22;7938;47.666;9.434;2023-09-19T11:52:02;21.50;99.90
15676;DHT22;7938;47.666;9.434;2023-09-19T11:54:31;21.60;99.90
15676;DHT22;7938;47.666;9.434;2023-09-19T11:56:59;21.70;99.90
15676;DHT22;7938;47.666;9.434;2023-09-19T11:59:28;21.40;99.90
15676;DHT22;7938;47.666;9.434;2023-09-19T12:01:56;21.30;99.90
15676;DHT22;7938;47.666;9.434;2023-09-19T12:04:37;21.20;99.90
15676;DHT22;7938;47.666;9.434;2023-09-19T12:07:07;21.50;99.90
15676;DHT22;7938;47.666;9.434;2023-09-19T12:09:39;21.50;99.90
15676;DHT22;7938;47.666;9.434;2023-09-19T12:12:09;21.70;99.90
15676;DHT22;7938;47.666;9.434;2023-09-19T12:14:38;21.60;99.90
15676;DHT22;7938;47.666;9.434;2023-09-19T12:17:07;21.70;99.90
15676;DHT22;7938;47.666;9.434;2023-09-19T12:19:34;21.60;99.90
15676;DHT22;7938;47.666;9.434;2023-09-19T12:22:02;21.40;99.90
15676;DHT22;7938;47.666;9.434;2023-09-19T12:24:32;21.50;99.90
15676;DHT22;7938;47.666;9.434;2023-09-19T12:27:03;21.30;99.90
15676;DHT22;7938;47.666;9.434;2023-09-19T12:29:42;21.50;99.90
15676;DHT22;7938;47.666;9.434;2023-09-19T12:32:10;21.60;99.90
15676;DHT22;7938;47.666;9.434;2023-09-19T12:34:37;21.50;99.90
15676;DHT22;7938;47.666;9.434;2023-09-19T12:37:09;21.50;99.90
15676;DHT22;7938;47.666;9.434;2023-09-19T12:39:43;21.60;99.90
15676;DHT22;7938;47.666;9.434;2023-09-19T12:42:15;21.60;99.90
15676;DHT22;7938;47.666;9.434;2023-09-19T12:44:42;21.50;99.90
15676;DHT22;7938;47.666;9.434;2023-09-19T12:47:14;21.30;99.90
15676;DHT22;7938;47.666;9.434;2023-09-19T12:50:05;21.40;99.90
15676;DHT22;7938;47.666;9.434;2023-09-19T12:52:36;21.50;99.90
15676;DHT22;7938;47.666;9.434;2023-09-19T12:55:04;21.70;99.90
15676;DHT22;7938;47.666;9.434;2023-09-19T12:57:32;21.80;99.90
15676;DHT22;7938;47.666;9.434;2023-09-19T13:00:00;21.80;99.40
15676;DHT22;7938;47.666;9.434;2023-09-19T13:02:27;21.70;99.90
15676;DHT22;7938;47.666;9.434;2023-09-19T13:04:54;21.70;99.90
15676;DHT22;7938;47.666;9.434;2023-09-19T13:07:41;21.70;99.90
15676;DHT22;7938;47.666;9.434;2023-09-19T13:10:12;21.70;99.90
15676;DHT22;7938;47.666;9.434;2023-09-19T13:12:42;21.50;99.90
15676;DHT22;7938;47.666;9.434;2023-09-19T13:15:14;21.60;99.90
15676;DHT22;7938;47.666;9.434;2023-09-19T13:17:45;21.60;99.90
15676;DHT22;7938;47.666;9.434;2023-09-19T13:20:21;21.60;99.90
15676;DHT22;7938;47.666;9.434;2023-09-19T13:22:53;21.70;99.90
15676;DHT22;7938;47.666;9.434;2023-09-19T13:25:25;21.90;99.90
15676;DHT22;7938;47.666;9.434;2023-09-19T13:27:56;21.70;99.80
15676;DHT22;7938;47.666;9.434;2023-09-19T13:30:23;22.00;99.90
15676;DHT22;7938;47.666;9.434;2023-09-19T13:32:51;22.00;99.90
15676;DHT22;7938;47.666;9.434;2023-09-19T13:35:19;22.00;99.90
15676;DHT22;7938;47.666;9.434;2023-09-19T13:37:47;21.80;99.90
15676;DHT22;7938;47.666;9.434;2023-09-19T13:40:17;21.70;99.90
15676;DHT22;7938;47.666;9.434;2023-09-19T13:42:45;21.60;99.60
15676;DHT22;7938;47.666;9.434;2023-09-19T13:45:12;21.80;99.90
15676;DHT22;7938;47.666;9.434;2023-09-19T13:47:43;21.80;99.90
15676;DHT22;7938;47.666;9.434;2023-09-19T13:50:10;22.00;99.70
15676;DHT22;7938;47.666;9.434;2023-09-19T13:52:37;22.10;99.50
15676;DHT22;7938;47.666;9.434;2023-09-19T13:55:04;22.10;99.90
15676;DHT22;7938;47.666;9.434;2023-09-19T13:57:32;22.30;99.80
15676;DHT22;7938;47.666;9.434;2023-09-19T14:00:00;22.30;99.90
15676;DHT22;7938;47.666;9.434;2023-09-19T14:02:28;22.50;99.10
15676;DHT22;7938;47.666;9.434;2023-09-19T14:04:55;22.40;99.10
15676;DHT22;7938;47.666;9.434;2023-09-19T14:07:23;22.60;98.50
15676;DHT22;7938;47.666;9.434;2023-09-19T14:09:51;22.60;99.30
15676;DHT22;7938;47.666;9.434;2023-09-19T14:12:18;22.30;99.00
15676;DHT22;7938;47.666;9.434;2023-09-19T14:14:45;22.40;99.70
15676;DHT22;7938;47.666;9.434;2023-09-19T14:17:13;21.90;99.00
15676;DHT22;7938;47.666;9.434;2023-09-19T14:19:41;22.10;99.90
15676;DHT22;7938;47.666;9.434;2023-09-19T14:22:09;22.30;98.50
15676;DHT22;7938;47.666;9.434;2023-09-19T14:24:36;22.50;98.50
15676;DHT22;7938;47.666;9.434;2023-09-19T14:27:04;22.60;98.70
15676;DHT22;7938;47.666;9.434;2023-09-19T14:29:32;21.70;99.20
15676;DHT22;7938;47.666;9.434;2023-09-19T14:31:59;22.70;98.90
15676;DHT22;7938;47.666;9.434;2023-09-19T14:34:27;23.00;97.80
15676;DHT22;7938;47.666;9.434;2023-09-19T14:36:54;23.00;97.60
15676;DHT22;7938;47.666;9.434;2023-09-19T14:39:21;23.10;98.20
15676;DHT22;7938;47.666;9.434;2023-09-19T14:41:49;23.10;97.80
15676;DHT22;7938;47.666;9.434;2023-09-19T14:44:15;23.20;97.80
15676;DHT22;7938;47.666;9.434;2023-09-19T14:46:42;23.30;97.80
15676;DHT22;7938;47.666;9.434;2023-09-19T14:49:10;24.00;96.70
15676;DHT22;7938;47.666;9.434;2023-09-19T14:51:39;25.70;94.90
15676;DHT22;7938;47.666;9.434;2023-09-19T14:54:06;27.10;93.40
15676;DHT22;7938;47.666;9.434;2023-09-19T14:56:33;28.60;90.30
15676;DHT22;7938;47.666;9.434;2023-09-19T14:59:00;27.80;90.10
15676;DHT22;7938;47.666;9.434;2023-09-19T15:01:28;27.90;90.10
15676;DHT22;7938;47.666;9.434;2023-09-19T15:03:55;28.80;87.80
15676;DHT22;7938;47.666;9.434;2023-09-19T15:06:22;29.80;84.70
15676;DHT22;7938;47.666;9.434;2023-09-19T15:08:50;30.40;83.70
15676;DHT22;7938;47.666;9.434;2023-09-19T15:11:17;30.90;80.90
15676;DHT22;7938;47.666;9.434;2023-09-19T15:13:46;31.40;78.60
15676;DHT22;7938;47.666;9.434;2023-09-19T15:16:13;31.30;81.20
15676;DHT22;7938;47.666;9.434;2023-09-19T15:18:41;31.00;80.30
15676;DHT22;7938;47.666;9.434;2023-09-19T15:21:09;31.00;78.30
15676;DHT22;7938;47.666;9.434;2023-09-19T15:23:37;30.40;79.30
15676;DHT22;7938;47.666;9.434;2023-09-19T15:26:06;28.60;83.20
15676;DHT22;7938;47.666;9.434;2023-09-19T15:28:34;26.80;86.80
15676;DHT22;7938;47.666;9.434;2023-09-19T15:31:03;26.00;89.90
15676;DHT22;7938;47.666;9.434;2023-09-19T15:33:31;26.30;90.20
15676;DHT22;7938;47.666;9.434;2023-09-19T15:38:29;28.60;86.60
15676;DHT22;7938;47.666;9.434;2023-09-19T15:40:57;30.10;80.40
15676;DHT22;7938;47.666;9.434;2023-09-19T15:43:25;30.10;81.00
15676;DHT22;7938;47.666;9.434;2023-09-19T15:45:52;30.50;79.90
15676;DHT22;7938;47.666;9.434;2023-09-19T15:48:19;29.90;81.50
15676;DHT22;7938;47.666;9.434;2023-09-19T15:50:47;29.50;81.90
15676;DHT22;7938;47.666;9.434;2023-09-19T15:53:14;29.20;82.10
15676;DHT22;7938;47.666;9.434;2023-09-19T15:55:42;29.60;83.70
15676;DHT22;7938;47.666;9.434;2023-09-19T15:58:10;28.80;82.80
15676;DHT22;7938;47.666;9.434;2023-09-19T16:00:41;26.00;89.20
15676;DHT22;7938;47.666;9.434;2023-09-19T16:03:07;26.00;89.50
15676;DHT22;7938;47.666;9.434;2023-09-19T16:05:36;25.70;89.50
15676;DHT22;7938;47.666;9.434;2023-09-19T16:08:05;25.20;92.00
15676;DHT22;7938;47.666;9.434;2023-09-19T16:10:34;26.00;90.40
15676;DHT22;7938;47.666;9.434;2023-09-19T16:13:02;26.10;90.50
15676;DHT22;7938;47.666;9.434;2023-09-19T16:15:30;26.50;90.80
15676;DHT22;7938;47.666;9.434;2023-09-19T16:17:58;27.30;90.10
15676;DHT22;7938;47.666;9.434;2023-09-19T16:20:26;27.50;89.10
15676;DHT22;7938;47.666;9.434;2023-09-19T16:22:53;27.50;89.60
15676;DHT22;7938;47.666;9.434;2023-09-19T16:25:20;27.40;90.10
15676;DHT22;7938;47.666;9.434;2023-09-19T16:27:47;26.60;91.10
15676;DHT22;7938;47.666;9.434;2023-09-19T16:30:14;25.70;91.90
15676;DHT22;7938;47.666;9.434;2023-09-19T16:32:44;24.50;93.60
15676;DHT22;7938;47.666;9.434;2023-09-19T16:35:12;24.00;94.50
15676;DHT22;7938;47.666;9.434;2023-09-19T16:37:39;23.20;94.40
15676;DHT22;7938;47.666;9.434;2023-09-19T16:40:07;22.90;95.30
15676;DHT22;7938;47.666;9.434;2023-09-19T16:42:34;22.50;95.20
15676;DHT22;7938;47.666;9.434;2023-09-19T16:45:03;22.30;96.30
15676;DHT22;7938;47.666;9.434;2023-09-19T16:47:30;22.30;96.60
15676;DHT22;7938;47.666;9.434;2023-09-19T16:49:57;22.10;97.00
15676;DHT22;7938;47.666;9.434;2023-09-19T16:52:25;21.80;97.80
15676;DHT22;7938;47.666;9.434;2023-09-19T16:54:52;21.60;98.20
15676;DHT22;7938;47.666;9.434;2023-09-19T16:57:19;21.40;97.80
15676;DHT22;7938;47.666;9.434;2023-09-19T16:59:46;21.20;98.60
15676;DHT22;7938;47.666;9.434;2023-09-19T17:02:14;21.00;98.80
15676;DHT22;7938;47.666;9.434;2023-09-19T17:04:42;20.80;98.90
15676;DHT22;7938;47.666;9.434;2023-09-19T17:07:09;20.60;99.90
15676;DHT22;7938;47.666;9.434;2023-09-19T17:09:37;20.40;99.90
15676;DHT22;7938;47.666;9.434;2023-09-19T17:12:05;20.30;99.90
15676;DHT22;7938;47.666;9.434;2023-09-19T17:14:33;20.10;99.90
15676;DHT22;7938;47.666;9.434;2023-09-19T17:17:01;19.90;99.90
15676;DHT22;7938;47.666;9.434;2023-09-19T17:19:29;19.80;99.90
15676;DHT22;7938;47.666;9.434;2023-09-19T17:21:55;19.40;99.90
15676;DHT22;7938;47.666;9.434;2023-09-19T17:24:22;19.30;99.90
15676;DHT22;7938;47.666;9.434;2023-09-19T17:26:51;19.10;99.90
15676;DHT22;7938;47.666;9.434;2023-09-19T17:29:17;18.90;99.90
15676;DHT22;7938;47.666;9.434;2023-09-19T17:31:45;18.60;99.90
15676;DHT22;7938;47.666;9.434;2023-09-19T17:34:12;18.50;99.90
15676;DHT22;7938;47.666;9.434;2023-09-19T17:36:41;18.30;99.90
15676;DHT22;7938;47.666;9.434;2023-09-19T17:39:08;18.30;99.90
15676;DHT22;7938;47.666;9.434;2023-09-19T17:41:40;18.10;99.90
15676;DHT22;7938;47.666;9.434;2023-09-19T17:44:09;18.10;99.90
15676;DHT22;7938;47.666;9.434;2023-09-19T17:46:37;18.00;99.90
15676;DHT22;7938;47.666;9.434;2023-09-19T17:49:04;17.90;99.90
15676;DHT22;7938;47.666;9.434;2023-09-19T17:51:32;17.60;99.90
15676;DHT22;7938;47.666;9.434;2023-09-19T17:53:58;17.50;99.90
15676;DHT22;7938;47.666;9.434;2023-09-19T17:56:28;17.50;99.90
15676;DHT22;7938;47.666;9.434;2023-09-19T17:58:55;17.50;99.90
15676;DHT22;7938;47.666;9.434;2023-09-19T18:01:24;17.40;99.90
15676;DHT22;7938;47.666;9.434;2023-09-19T18:03:53;17.40;99.90
15676;DHT22;7938;47.666;9.434;2023-09-19T18:06:23;17.20;99.90
15676;DHT22;7938;47.666;9.434;2023-09-19T18:08:50;17.00;99.90
15676;DHT22;7938;47.666;9.434;2023-09-19T18:13:46;16.90;99.90
15676;DHT22;7938;47.666;9.434;2023-09-19T18:16:16;16.80;99.90
15676;DHT22;7938;47.666;9.434;2023-09-19T18:18:45;16.80;99.90
15676;DHT22;7938;47.666;9.434;2023-09-19T18:21:15;16.80;99.90
15676;DHT22;7938;47.666;9.434;2023-09-19T18:23:45;16.80;99.90
15676;DHT22;7938;47.666;9.434;2023-09-19T18:26:13;16.70;99.90
15676;DHT22;7938;47.666;9.434;2023-09-19T18:28:41;16.50;99.90
15676;DHT22;7938;47.666;9.434;2023-09-19T18:31:09;16.40;99.90
15676;DHT22;7938;47.666;9.434;2023-09-19T18:33:36;16.40;99.90
15676;DHT22;7938;47.666;9.434;2023-09-19T18:36:06;16.40;99.90
15676;DHT22;7938;47.666;9.434;2023-09-19T18:38:37;16.30;99.90
15676;DHT22;7938;47.666;9.434;2023-09-19T18:41:06;16.20;99.90
15676;DHT22;7938;47.666;9.434;2023-09-19T18:43:33;16.20;99.90
15676;DHT22;7938;47.666;9.434;2023-09-19T18:46:03;16.10;99.90
15676;DHT22;7938;47.666;9.434;2023-09-19T18:48:35;16.10;99.90
15676;DHT22;7938;47.666;9.434;2023-09-19T18:51:08;16.00;99.90
15676;DHT22;7938;47.666;9.434;2023-09-19T18:53:35;16.00;99.90
15676;DHT22;7938;47.666;9.434;2023-09-19T18:56:04;16.00;99.90
15676;DHT22;7938;47.666;9.434;2023-09-19T18:58:31;15.90;99.90
15676;DHT22;7938;47.666;9.434;2023-09-19T19:01:01;15.80;99.90
15676;DHT22;7938;47.666;9.434;2023-09-19T19:03:28;15.80;99.90
15676;DHT22;7938;47.666;9.434;2023-09-19T19:05:55;15.90;99.90
15676;DHT22;7938;47.666;9.434;2023-09-19T19:08:24;16.00;99.90
15676;DHT22;7938;47.666;9.434;2023-09-19T19:10:51;15.90;99.90
15676;DHT22;7938;47.666;9.434;2023-09-19T19:13:18;15.80;99.90
15676;DHT22;7938;47.666;9.434;2023-09-19T19:15:45;15.70;99.90
15676;DHT22;7938;47.666;9.434;2023-09-19T19:18:12;15.70;99.90
15676;DHT22;7938;47.666;9.434;2023-09-19T19:20:39;15.60;99.90
15676;DHT22;7938;47.666;9.434;2023-09-19T19:23:07;15.60;99.90
15676;DHT22;7938;47.666;9.434;2023-09-19T19:25:36;15.50;99.90
15676;DHT22;7938;47.666;9.434;2023-09-19T19:28:05;15.60;99.90
15676;DHT22;7938;47.666;9.434;2023-09-19T19:30:34;15.50;99.90
15676;DHT22;7938;47.666;9.434;2023-09-19T19:33:02;15.50;99.90
15676;DHT22;7938;47.666;9.434;2023-09-19T19:35:29;15.40;99.90
15676;DHT22;7938;47.666;9.434;2023-09-19T19:37:58;15.50;99.90
15676;DHT22;7938;47.666;9.434;2023-09-19T19:40:25;15.20;99.90
15676;DHT22;7938;47.666;9.434;2023-09-19T19:42:53;15.20;99.90
15676;DHT22;7938;47.666;9.434;2023-09-19T19:45:21;15.20;99.90
15676;DHT22;7938;47.666;9.434;2023-09-19T19:47:48;15.20;99.90
15676;DHT22;7938;47.666;9.434;2023-09-19T19:50:15;15.10;99.90
15676;DHT22;7938;47.666;9.434;2023-09-19T19:52:43;15.10;99.90
15676;DHT22;7938;47.666;9.434;2023-09-19T19:55:09;15.00;99.90
15676;DHT22;7938;47.666;9.434;2023-09-19T19:57:36;15.00;99.90
15676;DHT22;7938;47.666;9.434;2023-09-19T20:00:06;14.90;99.90
15676;DHT22;7938;47.666;9.434;2023-09-19T20:02:33;14.90;99.90
15676;DHT22;7938;47.666;9.434;2023-09-19T20:05:01;14.90;99.90
15676;DHT22;7938;47.666;9.434;2023-09-19T20:07:30;14.90;99.90
15676;DHT22;7938;47.666;9.434;2023-09-19T20:09:58;14.80;99.90
15676;DHT22;7938;47.666;9.434;2023-09-19T20:12:24;14.80;99.90
15676;DHT22;7938;47.666;9.434;2023-09-19T20:14:51;14.80;99.90